Hauptseite
METAR-TAF:

METAR-TAF

Flughäfen :

Flughafen Cuneo

Cuneo, Italien

Breite: 44-32-47N, Länge: 007-37-20E, Höhe: 386 m

Beobachtung

Neuester Wetterbericht von vor 1 Stunde und 10 Minuten, um 12:50 UTC
Wind 5 kt aus Nordwest
Temperatur 18°C
Luftfeuchtigkeit 68%
Luftdruck 1019 hPa
Sichtweite: 8000 m
Durchbrochene Bewölkung in der Höhe von 4000 ft

METAR: LIMZ 151250Z 32005KT 8000 BKN040 18/12 Q1019

Zeit: 16:00 (14:00 UTC)

Prognose

Neuester Wetterbericht von vor 3 Stunden und 0 Minuten, um 11:00 UTC
Gültige Prognose vom 15 um 12 UTC bis 16 um 12 UTC
Wind 5 kt aus unterschiedlichen Richtungen
Sichtweite: 8000 m
Durchbrochene Bewölkung in der Höhe von 4000 ft
Wahrscheinlichkeit 40% :
Zeitweise
vom 15 um 12 UTC bis 15 um 18 UTC
Sichtweite: 4000 m
Regenschauer

TAF: LIMZ 151100Z 1512/1612 VRB05KT 8000 BKN040 PROB40 TEMPO 1512/1518 4000 SHRA

Wetterbeobachtungen und Prognosen von mehr als 4000 Flughäfen (METAR und TAF Bericht).

Die verfügbaren Stationen werden durch gelbe und rote Markierungen auf der Karte dargestellt.

Führen Sie die Maus auf sie, um den Namen der Station zu sehen.

Darauf klicken, um die Beobachtung von Wetterbeobachtungen und Prognosen zu sehen.

Um die Karte zu ändern : klicken Sie auf den grünen Tasten mit einem schwarzen Kreuz Zum Vergrößern, auf den grünen Button mit einem Gedankenstrich zu verkleinern, oder auf die grünen Pfeile für benachbarte Karten.


METAR-TAF: